Time;durP1;ratioP1;P1;durP2;ratioP2;P2;SDS_P1;SDS_P2;PMS_P1;PMS_P2;Temp;Humidity;BMP_temperature;BMP_pressure;BME280_temperature;BME280_humidity;BME280_pressure;Samples;Min_cycle;Max_cycle;Signal;HPM_P1;HPM_P2
2021/04/08 00:02:06;;;;;;;0.10;0.00;;;-5.00;59.30;;;;;;20829884;28;20391;-47
2021/04/08 00:12:09;;;;;;;0.73;0.20;;;-5.10;57.00;;;;;;20829362;28;20064;-52
2021/04/08 00:22:10;;;;;;;0.85;0.10;;;-5.10;57.50;;;;;;20828595;28;20076;-47
2021/04/08 00:32:12;;;;;;;2.17;0.10;;;-5.10;56.70;;;;;;20828289;28;20037;-47
2021/04/08 00:42:14;;;;;;;0.22;0.10;;;-4.90;56.80;;;;;;20828008;28;20061;-48
2021/04/08 00:52:16;;;;;;;0.00;0.00;;;-4.80;56.40;;;;;;20826563;28;20107;-48
2021/04/08 01:02:18;;;;;;;0.30;0.10;;;-4.60;55.60;;;;;;20826146;28;20568;-47
2021/04/08 01:12:20;;;;;;;1.02;0.30;;;-4.50;55.10;;;;;;20825434;28;20111;-47
2021/04/08 01:22:49;;;;;;;0.30;0.00;;;-4.80;57.50;;;;;;20825166;28;20557;-50
2021/04/08 01:32:54;;;;;;;0.43;0.17;;;-5.00;58.30;;;;;;20824677;28;20037;-47
2021/04/08 01:42:56;;;;;;;0.10;0.00;;;-5.00;57.40;;;;;;20823559;28;20045;-49
2021/04/08 01:53:00;;;;;;;0.10;0.00;;;-4.90;56.50;;;;;;20826448;28;20046;-53
2021/04/08 02:03:04;;;;;;;0.10;0.00;;;-4.80;56.30;;;;;;20839924;28;20565;-47
2021/04/08 02:13:10;;;;;;;0.38;0.20;;;-4.70;58.00;;;;;;20838834;28;20037;-47
2021/04/08 02:23:16;;;;;;;0.98;0.13;;;-4.60;55.60;;;;;;20838846;28;20449;-51
2021/04/08 02:33:26;;;;;;;0.10;0.00;;;-4.10;54.90;;;;;;20837966;28;20509;-50
2021/04/08 02:43:28;;;;;;;0.00;0.00;;;-4.10;55.30;;;;;;20837008;28;20065;-47
2021/04/08 02:53:52;;;;;;;0.08;0.00;;;-4.20;54.20;;;;;;20836498;28;20037;-52
2021/04/08 03:03:59;;;;;;;0.20;0.00;;;-3.30;51.70;;;;;;20835436;28;20037;-48
2021/04/08 03:14:05;;;;;;;0.00;0.00;;;-2.20;47.10;;;;;;20836034;28;20076;-47
2021/04/08 03:24:09;;;;;;;0.00;0.00;;;-2.60;50.50;;;;;;20834237;28;20079;-49
2021/04/08 03:34:13;;;;;;;0.15;0.00;;;-3.10;50.20;;;;;;20832863;28;20554;-48
2021/04/08 03:44:15;;;;;;;0.10;0.00;;;-2.40;49.70;;;;;;20831855;28;20491;-48
2021/04/08 03:54:18;;;;;;;0.38;0.20;;;-2.10;51.50;;;;;;20831154;28;20037;-53
2021/04/08 04:04:21;;;;;;;0.10;0.00;;;-3.00;52.50;;;;;;20830533;28;20037;-47
2021/04/08 04:14:27;;;;;;;0.28;0.00;;;-3.30;57.10;;;;;;20828817;28;20038;-47
2021/04/08 04:24:29;;;;;;;0.32;0.00;;;-3.00;54.20;;;;;;20829063;28;20399;-48
2021/04/08 04:34:31;;;;;;;0.05;0.03;;;-3.30;53.60;;;;;;20828043;28;20391;-47
2021/04/08 04:44:33;;;;;;;0.00;0.00;;;-3.40;54.80;;;;;;20827545;28;20526;-48
2021/04/08 04:54:35;;;;;;;0.47;0.00;;;-3.70;56.00;;;;;;20826169;28;20041;-48
2021/04/08 05:04:39;;;;;;;0.08;0.00;;;-3.90;56.00;;;;;;20825890;28;20099;-48
2021/04/08 05:14:40;;;;;;;0.15;0.00;;;-4.00;58.90;;;;;;20824986;28;20071;-50
2021/04/08 05:24:42;;;;;;;0.10;0.10;;;-3.80;57.00;;;;;;20824421;28;20037;-47
2021/04/08 05:34:44;;;;;;;0.32;0.00;;;-3.70;56.00;;;;;;20823835;28;20037;-47
2021/04/08 05:44:46;;;;;;;0.35;0.00;;;-3.50;57.00;;;;;;20823487;28;20506;-53
2021/04/08 05:54:48;;;;;;;0.10;0.00;;;-3.20;54.50;;;;;;20822932;28;20064;-47
2021/04/08 06:04:50;;;;;;;0.40;0.00;;;-2.80;52.30;;;;;;20823253;28;20041;-47
2021/04/08 06:14:52;;;;;;;0.10;0.00;;;-2.40;52.90;;;;;;20822145;28;20038;-48
2021/04/08 06:24:54;;;;;;;0.80;0.10;;;-2.10;51.50;;;;;;20822354;28;20313;-53
2021/04/08 06:34:56;;;;;;;0.35;0.10;;;-1.70;51.10;;;;;;20821763;28;20068;-48
2021/04/08 06:44:59;;;;;;;0.30;0.10;;;-1.60;51.20;;;;;;20832827;28;20061;-49
2021/04/08 06:55:03;;;;;;;0.28;0.00;;;-0.40;51.90;;;;;;20836296;28;20139;-52
2021/04/08 07:05:07;;;;;;;0.43;0.20;;;1.40;44.50;;;;;;20836555;28;20041;-51
2021/04/08 07:15:09;;;;;;;0.65;0.30;;;1.80;43.80;;;;;;20835339;28;20034;-48
2021/04/08 07:25:20;;;;;;;0.20;0.10;;;2.20;43.30;;;;;;20833517;28;20475;-48
2021/04/08 07:35:21;;;;;;;0.60;0.20;;;2.70;43.20;;;;;;20832979;28;20811;-50
2021/04/08 07:45:33;;;;;;;0.60;0.20;;;3.10;43.20;;;;;;20831905;28;20095;-48
2021/04/08 07:55:38;;;;;;;0.30;0.20;;;3.60;43.00;;;;;;20831011;28;20037;-53
2021/04/08 08:05:45;;;;;;;3.15;0.60;;;4.30;42.50;;;;;;20829149;28;20060;-48
2021/04/08 08:15:47;;;;;;;1.27;0.32;;;5.10;45.30;;;;;;20829321;28;20084;-47
2021/04/08 08:25:49;;;;;;;0.20;0.10;;;6.10;44.30;;;;;;20828674;28;20064;-48
2021/04/08 08:35:51;;;;;;;0.43;0.20;;;6.50;38.80;;;;;;20827689;28;20091;-48
2021/04/08 08:45:53;;;;;;;2.95;0.40;;;6.50;42.80;;;;;;20827492;28;20053;-48
2021/04/08 08:55:55;;;;;;;1.83;0.40;;;6.10;43.10;;;;;;20825746;28;20049;-47
2021/04/08 09:06:00;;;;;;;0.40;0.30;;;6.60;41.50;;;;;;20825460;28;20049;-49
2021/04/08 09:16:22;;;;;;;2.47;0.60;;;6.90;41.40;;;;;;20840016;28;20083;-51
2021/04/08 09:26:24;;;;;;;0.75;0.38;;;7.20;42.60;;;;;;20824360;28;20034;-48
2021/04/08 09:36:27;;;;;;;0.90;0.45;;;7.40;40.50;;;;;;20822529;28;20068;-53
2021/04/08 09:46:41;;;;;;;2.15;0.47;;;7.80;42.10;;;;;;20823672;28;20072;-49
2021/04/08 09:56:49;;;;;;;1.40;0.40;;;8.10;42.70;;;;;;20822771;28;20437;-54
2021/04/08 10:07:05;;;;;;;2.83;0.50;;;8.70;42.00;;;;;;20822903;28;20041;-48
2021/04/08 10:17:12;;;;;;;4.05;0.60;;;8.80;42.50;;;;;;20829994;28;20091;-48
2021/04/08 10:27:20;;;;;;;1.10;0.47;;;9.10;43.70;;;;;;20837953;28;20403;-52
2021/04/08 10:37:22;;;;;;;1.17;0.55;;;9.50;41.30;;;;;;20836983;28;20037;-48
2021/04/08 10:47:26;;;;;;;2.50;0.50;;;9.70;41.40;;;;;;20836469;28;20037;-48
2021/04/08 10:57:30;;;;;;;3.83;0.88;;;9.90;43.30;;;;;;20835705;28;20096;-48
2021/04/08 11:07:43;;;;;;;2.80;0.82;;;10.30;42.70;;;;;;20834999;28;20491;-50
2021/04/08 11:17:54;;;;;;;4.07;0.98;;;10.20;42.00;;;;;;20834001;28;20064;-54
2021/04/08 11:27:58;;;;;;;3.33;1.33;;;10.20;40.00;;;;;;20819112;28;20480;-48
2021/04/08 11:38:04;;;;;;;3.40;1.58;;;9.80;39.70;;;;;;20751083;28;20092;-48
2021/04/08 11:48:07;;;;;;;3.30;1.40;;;9.50;40.50;;;;;;20750117;28;20057;-50
2021/04/08 11:58:11;;;;;;;2.35;1.30;;;10.10;40.90;;;;;;20748949;28;20042;-48
2021/04/08 12:08:13;;;;;;;2.53;1.02;;;10.40;38.40;;;;;;20748286;28;20399;-49
2021/04/08 12:18:24;;;;;;;2.83;1.20;;;10.60;39.90;;;;;;20827697;28;20084;-51
2021/04/08 12:28:27;;;;;;;2.17;1.20;;;10.20;39.60;;;;;;20828580;28;20033;-50
2021/04/08 12:38:30;;;;;;;4.97;1.10;;;10.10;39.50;;;;;;20826818;28;20091;-48
2021/04/08 12:48:32;;;;;;;1.73;1.10;;;9.60;41.70;;;;;;20826724;28;20210;-53
2021/04/08 12:58:34;;;;;;;1.95;1.00;;;10.00;41.50;;;;;;20825963;28;20041;-48
2021/04/08 13:08:36;;;;;;;4.28;1.35;;;10.00;39.30;;;;;;20825693;28;20460;-48
2021/04/08 13:18:38;;;;;;;3.25;1.52;;;10.00;41.90;;;;;;20824772;28;20387;-54
2021/04/08 13:28:40;;;;;;;2.85;1.38;;;10.60;43.00;;;;;;20824554;28;20049;-53
2021/04/08 13:38:42;;;;;;;4.60;1.85;;;10.90;41.80;;;;;;20823630;28;20045;-49
2021/04/08 13:48:45;;;;;;;3.55;1.90;;;10.70;43.60;;;;;;20830820;28;20045;-49
2021/04/08 13:58:49;;;;;;;6.25;2.20;;;10.50;44.50;;;;;;20850622;28;20041;-49
2021/04/08 14:08:51;;;;;;;5.13;2.40;;;10.50;44.40;;;;;;20849701;28;20104;-49
2021/04/08 14:18:54;;;;;;;6.18;2.50;;;10.10;47.90;;;;;;20850834;28;20140;-50
2021/04/08 14:28:59;;;;;;;6.28;3.13;;;10.20;48.40;;;;;;20850788;28;20037;-52
2021/04/08 14:39:01;;;;;;;6.75;3.20;;;9.70;50.20;;;;;;20850148;28;20033;-50
2021/04/08 14:49:03;;;;;;;4.43;2.47;;;9.70;48.90;;;;;;20848716;28;20080;-48
2021/04/08 14:59:05;;;;;;;5.50;2.75;;;9.60;47.60;;;;;;20845838;28;20372;-55
2021/04/08 15:09:08;;;;;;;5.00;3.00;;;9.50;48.20;;;;;;20834796;28;20549;-49
2021/04/08 15:19:11;;;;;;;6.88;3.40;;;8.90;49.10;;;;;;20834171;28;20041;-48
2021/04/08 15:29:12;;;;;;;8.25;3.35;;;7.90;50.30;;;;;;20833981;28;20449;-52
2021/04/08 15:39:15;;;;;;;6.93;3.13;;;7.30;53.00;;;;;;20832819;28;20041;-47
2021/04/08 15:49:17;;;;;;;4.90;3.20;;;6.80;54.40;;;;;;20831500;28;20053;-47
2021/04/08 15:59:19;;;;;;;5.47;2.85;;;6.60;55.70;;;;;;20831200;28;20087;-49
2021/04/08 16:09:20;;;;;;;8.48;4.40;;;6.50;55.90;;;;;;20831433;28;20030;-48
2021/04/08 16:19:22;;;;;;;6.30;3.72;;;6.00;58.50;;;;;;20828290;28;20526;-46
2021/04/08 16:29:24;;;;;;;6.47;4.05;;;5.20;60.00;;;;;;20828581;28;20042;-47
2021/04/08 16:39:27;;;;;;;6.03;3.80;;;4.80;61.90;;;;;;20843004;28;20033;-47
2021/04/08 16:49:29;;;;;;;6.97;3.95;;;4.30;63.20;;;;;;20826924;28;20573;-47
2021/04/08 16:59:30;;;;;;;10.32;3.85;;;3.80;64.60;;;;;;20826281;28;20045;-47
2021/04/08 17:09:33;;;;;;;6.28;3.78;;;3.50;66.20;;;;;;20825562;28;20394;-52
2021/04/08 17:19:34;;;;;;;9.23;4.00;;;3.10;67.40;;;;;;20824757;28;20034;-47
2021/04/08 17:29:36;;;;;;;5.53;3.95;;;2.80;68.80;;;;;;20824259;28;20041;-47
2021/04/08 17:39:38;;;;;;;5.72;3.58;;;2.40;70.60;;;;;;20822777;28;20549;-47
2021/04/08 17:49:40;;;;;;;6.55;3.67;;;1.90;72.10;;;;;;20823218;28;20080;-50
2021/04/08 17:59:43;;;;;;;6.97;3.53;;;1.60;74.20;;;;;;20822859;28;20038;-47
2021/04/08 18:09:44;;;;;;;8.32;3.42;;;1.30;76.20;;;;;;20822397;28;20084;-47
2021/04/08 18:19:46;;;;;;;5.40;3.17;;;1.10;78.00;;;;;;20822073;28;20045;-50
2021/04/08 18:29:48;;;;;;;5.85;3.10;;;1.00;80.40;;;;;;20821536;28;20034;-47
2021/04/08 18:39:52;;;;;;;4.97;2.85;;;1.10;81.20;;;;;;20831647;28;20033;-47
2021/04/08 18:49:54;;;;;;;5.57;3.20;;;1.40;80.40;;;;;;20836186;28;20453;-52
2021/04/08 18:59:56;;;;;;;6.10;3.22;;;1.00;82.40;;;;;;20835630;28;20049;-47
2021/04/08 19:09:58;;;;;;;6.60;3.03;;;0.60;84.90;;;;;;20835230;28;20037;-47
2021/04/08 19:20:06;;;;;;;5.22;3.17;;;0.20;88.10;;;;;;20834421;28;20029;-47
2021/04/08 19:30:16;;;;;;;7.80;3.15;;;0.00;90.60;;;;;;20833558;28;20049;-47
2021/04/08 19:40:23;;;;;;;5.63;2.83;;;0.00;91.80;;;;;;20830274;28;20033;-48
2021/04/08 19:50:25;;;;;;;5.75;2.90;;;0.20;91.50;;;;;;20846546;28;20061;-47
2021/04/08 20:00:29;;;;;;;8.00;2.10;;;0.40;91.20;;;;;;20829393;28;20087;-51
2021/04/08 20:10:32;;;;;;;5.53;2.53;;;0.50;89.70;;;;;;20814037;28;20092;-48
2021/04/08 20:20:34;;;;;;;3.92;2.47;;;1.50;87.50;;;;;;20823450;28;20380;-47
2021/04/08 20:30:36;;;;;;;8.02;3.28;;;2.00;85.90;;;;;;20828610;28;20033;-50
2021/04/08 20:40:38;;;;;;;6.15;3.17;;;1.70;89.70;;;;;;20824716;28;20046;-47
2021/04/08 20:50:42;;;;;;;8.82;3.58;;;1.30;90.60;;;;;;20746823;28;20049;-48
2021/04/08 21:00:44;;;;;;;6.80;3.53;;;1.00;92.20;;;;;;20824970;28;20076;-49
2021/04/08 21:10:46;;;;;;;8.70;4.20;;;0.50;93.30;;;;;;20818978;28;20503;-55
2021/04/08 21:20:49;;;;;;;9.55;4.13;;;-0.20;96.20;;;;;;20789197;28;20041;-54
2021/04/08 21:30:52;;;;;;;8.30;3.97;;;-0.80;98.40;;;;;;20824064;28;20451;-51
2021/04/08 21:41:00;;;;;;;9.45;4.18;;;-1.10;99.90;;;;;;20823398;28;20050;-49
2021/04/08 21:51:02;;;;;;;11.95;4.07;;;-1.10;99.90;;;;;;20823473;28;20042;-47
2021/04/08 22:01:05;;;;;;;7.93;3.20;;;-1.10;99.90;;;;;;20822788;28;20442;-47
2021/04/08 22:11:07;;;;;;;6.03;3.10;;;-1.00;99.90;;;;;;20829040;28;20095;-47
2021/04/08 22:21:09;;;;;;;5.95;3.05;;;-1.00;99.90;;;;;;20839117;28;20037;-47
2021/04/08 22:31:12;;;;;;;7.88;3.08;;;-1.00;99.90;;;;;;20838020;28;20030;-47
2021/04/08 22:41:16;;;;;;;4.28;2.05;;;-1.10;99.90;;;;;;20836833;28;20104;-47
2021/04/08 22:51:18;;;;;;;3.63;1.92;;;-1.00;99.90;;;;;;20836753;28;20099;-49
2021/04/08 23:01:20;;;;;;;5.88;1.88;;;-0.80;99.90;;;;;;20834363;28;20049;-49
2021/04/08 23:11:23;;;;;;;6.88;1.45;;;-0.50;99.90;;;;;;20835674;28;20037;-48
2021/04/08 23:21:26;;;;;;;3.38;1.67;;;-0.10;99.90;;;;;;20833914;28;20045;-48
2021/04/08 23:31:28;;;;;;;3.95;1.63;;;0.00;99.90;;;;;;20833605;28;20041;-49
2021/04/08 23:41:30;;;;;;;8.73;1.70;;;0.20;99.90;;;;;;20831252;28;20053;-50
2021/04/08 23:51:32;;;;;;;5.00;1.50;;;-0.10;99.90;;;;;;20832046;28;20037;-47
